Glen, Nebraska
Current Conditions -  °F | °C
As of 12:53 PM on Thursday 30 Oct 2014 (Local Time) from KCDR Reporting Station
Clear Clear  
Wind Chill: 60°   Ceiling: Unl
Heat Index: 60°   Visibility: 10mi
Dew Point: 33°   Wind: 5mph
Humidity: 36%   Direction: 330°NNW
Pressure: 30.3"   Gusts: NA
Location:  42.7426°N, 103.391°W
Report Text: KCDR 301853Z AUTO 33004KT 10SM CLR 16/01 A3030 RMK AO2 SLP273 T01560006
Loading
Personal Weather Stations






























Interactive Weather Map
Tropical Storm Tracking
New forecast layout! Learn more

10-Day Weather Forecast

Advertisements
Track Severe Weather on mobile